NCAR-RAP Real-Time Weather Data

Output produced by METARs form (08 May 2021  01:27 UTC)
found at http://weather.rap.ucar.edu/surface/
 
KFVE 080053Z AUTO 04005KT 10SM CLR 07/M03 A3000 RMK AO2 SLP163 T00721033
KFVE 072353Z AUTO 35003KT 10SM CLR 08/M05 A2998 RMK AO2 SLP159 T00831050 10117 20083 53012
KFVE 072253Z AUTO 35007KT 10SM FEW065 10/M05 A2997 RMK AO2 SLP154 T01001050
KFVE 072153Z AUTO VRB06KT 10SM OVC070 11/M04 A2996 RMK AO2 SLP149 T01111039
KFVE 072053Z AUTO 36003KT 10SM BKN060 OVC075 10/M05 A2995 RMK AO2 SLP146 T01001050 50000
KFVE 071955Z AUTO 34006KT 10SM OVC060 09/M04 A2995 RMK AO2 SLP148 T00941039
KFVE 071853Z AUTO 33007KT 10SM SCT050 OVC065 09/M03 A2995 RMK AO2 SLP146 T00941033
KFVE 071753Z AUTO 33010KT 10SM SCT048 OVC065 09/M02 A2995 RMK AO2 SLP146 T00891022 10094 20044 56003
KFVE 071653Z AUTO 35008KT 10SM SCT040 SCT050 OVC065 09/M02 A2995 RMK AO2 SLP147 T00891017
KFVE 071553Z AUTO 35008KT 10SM FEW034 OVC065 08/M01 A2995 RMK AO2 SLP147 T00781011
KFVE 071453Z AUTO 34009G16KT 10SM BKN036 BKN070 09/00 A2996 RMK AO2 SLP149 T00890000 52009
KFVE 071435Z AUTO 35013G18KT 10SM SCT027 BKN034 BKN065 08/00 A2995 RMK AO2 T00780000
KFVE 071421Z AUTO 34012KT 10SM BKN026 BKN065 08/00 A2995 RMK AO2 T00780000
KFVE 071353Z AUTO 35011G18KT 10SM FEW024 07/00 A2994 RMK AO2 SLP143 T00720000
KFVE 071338Z AUTO 34012G18KT 10SM SCT023 SCT070 07/00 A2994 RMK AO2 T00720000
KFVE 071253Z AUTO 31010KT 10SM BKN022 OVC070 06/00 A2994 RMK AO2 SLP146 T00560000
KFVE 071153Z AUTO 30009KT 10SM OVC020 04/M01 A2993 RMK AO2 SLP141 70006 T00441006 10044 20033 51019
KFVE 071053Z AUTO 33009KT 10SM OVC019 04/00 A2991 RMK AO2 SLP135 T00390000
KFVE 070953Z AUTO 32008KT 10SM OVC018 03/00 A2989 RMK AO2 SLP128 T00330000